sensor_id;sensor_type;location;lat;lon;timestamp;temperature;humidity
3925;DHT22;1977;52.274;10.518;2024-01-15T00:01:42;3.40;99.90
3925;DHT22;1977;52.274;10.518;2024-01-15T00:04:10;3.40;99.90
3925;DHT22;1977;52.274;10.518;2024-01-15T00:06:37;3.50;99.90
3925;DHT22;1977;52.274;10.518;2024-01-15T00:09:03;3.50;99.90
3925;DHT22;1977;52.274;10.518;2024-01-15T00:11:32;3.50;99.90
3925;DHT22;1977;52.274;10.518;2024-01-15T00:13:59;3.50;99.90
3925;DHT22;1977;52.274;10.518;2024-01-15T00:16:25;3.40;99.90
3925;DHT22;1977;52.274;10.518;2024-01-15T00:18:52;3.40;99.90
3925;DHT22;1977;52.274;10.518;2024-01-15T00:21:20;3.40;99.90
3925;DHT22;1977;52.274;10.518;2024-01-15T00:23:47;3.40;99.90
3925;DHT22;1977;52.274;10.518;2024-01-15T00:26:14;3.40;99.90
3925;DHT22;1977;52.274;10.518;2024-01-15T00:28:40;3.40;99.90
3925;DHT22;1977;52.274;10.518;2024-01-15T00:31:08;3.40;99.90
3925;DHT22;1977;52.274;10.518;2024-01-15T00:33:34;3.30;99.90
3925;DHT22;1977;52.274;10.518;2024-01-15T00:36:02;3.30;99.90
3925;DHT22;1977;52.274;10.518;2024-01-15T00:38:30;3.30;99.90
3925;DHT22;1977;52.274;10.518;2024-01-15T00:40:56;3.30;99.90
3925;DHT22;1977;52.274;10.518;2024-01-15T00:43:23;3.30;99.90
3925;DHT22;1977;52.274;10.518;2024-01-15T00:45:50;3.30;99.90
3925;DHT22;1977;52.274;10.518;2024-01-15T00:48:16;3.30;99.90
3925;DHT22;1977;52.274;10.518;2024-01-15T00:50:43;3.30;99.90
3925;DHT22;1977;52.274;10.518;2024-01-15T00:53:10;3.30;99.90
3925;DHT22;1977;52.274;10.518;2024-01-15T00:55:38;3.30;99.90
3925;DHT22;1977;52.274;10.518;2024-01-15T00:58:05;3.30;99.90
3925;DHT22;1977;52.274;10.518;2024-01-15T01:00:32;3.40;99.90
3925;DHT22;1977;52.274;10.518;2024-01-15T01:02:58;3.40;99.90
3925;DHT22;1977;52.274;10.518;2024-01-15T01:05:25;3.50;99.90
3925;DHT22;1977;52.274;10.518;2024-01-15T01:07:52;3.40;99.90
3925;DHT22;1977;52.274;10.518;2024-01-15T01:10:19;3.50;99.90
3925;DHT22;1977;52.274;10.518;2024-01-15T01:12:47;3.50;99.90
3925;DHT22;1977;52.274;10.518;2024-01-15T01:15:14;3.40;99.90
3925;DHT22;1977;52.274;10.518;2024-01-15T01:17:40;3.40;99.90
3925;DHT22;1977;52.274;10.518;2024-01-15T01:20:08;3.40;99.90
3925;DHT22;1977;52.274;10.518;2024-01-15T01:22:36;3.40;99.90
3925;DHT22;1977;52.274;10.518;2024-01-15T01:25:03;3.30;99.90
3925;DHT22;1977;52.274;10.518;2024-01-15T01:27:30;3.30;99.90
3925;DHT22;1977;52.274;10.518;2024-01-15T01:29:58;3.30;99.90
3925;DHT22;1977;52.274;10.518;2024-01-15T01:32:26;3.40;99.90
3925;DHT22;1977;52.274;10.518;2024-01-15T01:34:53;3.40;99.90
3925;DHT22;1977;52.274;10.518;2024-01-15T01:37:19;3.40;99.90
3925;DHT22;1977;52.274;10.518;2024-01-15T01:39:46;3.40;99.90
3925;DHT22;1977;52.274;10.518;2024-01-15T01:42:13;3.40;99.90
3925;DHT22;1977;52.274;10.518;2024-01-15T01:44:40;3.40;99.90
3925;DHT22;1977;52.274;10.518;2024-01-15T01:47:08;3.40;99.90
3925;DHT22;1977;52.274;10.518;2024-01-15T01:49:35;3.40;99.90
3925;DHT22;1977;52.274;10.518;2024-01-15T01:52:05;3.40;99.90
3925;DHT22;1977;52.274;10.518;2024-01-15T01:54:32;3.30;99.90
3925;DHT22;1977;52.274;10.518;2024-01-15T01:57:00;3.30;99.90
3925;DHT22;1977;52.274;10.518;2024-01-15T01:59:29;3.30;99.90
3925;DHT22;1977;52.274;10.518;2024-01-15T02:01:57;3.40;99.90
3925;DHT22;1977;52.274;10.518;2024-01-15T02:04:26;3.40;99.90
3925;DHT22;1977;52.274;10.518;2024-01-15T02:06:53;3.40;99.90
3925;DHT22;1977;52.274;10.518;2024-01-15T02:09:20;3.40;99.90
3925;DHT22;1977;52.274;10.518;2024-01-15T02:11:47;3.50;99.90
3925;DHT22;1977;52.274;10.518;2024-01-15T02:14:14;3.50;99.90
3925;DHT22;1977;52.274;10.518;2024-01-15T02:16:41;3.60;99.90
3925;DHT22;1977;52.274;10.518;2024-01-15T02:19:15;3.60;99.90
3925;DHT22;1977;52.274;10.518;2024-01-15T02:21:43;3.60;99.90
3925;DHT22;1977;52.274;10.518;2024-01-15T02:24:11;3.60;99.90
3925;DHT22;1977;52.274;10.518;2024-01-15T02:26:38;3.60;99.90
3925;DHT22;1977;52.274;10.518;2024-01-15T02:29:07;3.80;99.90
3925;DHT22;1977;52.274;10.518;2024-01-15T02:31:35;3.60;99.90
3925;DHT22;1977;52.274;10.518;2024-01-15T02:34:01;3.60;99.90
3925;DHT22;1977;52.274;10.518;2024-01-15T02:36:28;3.70;99.90
3925;DHT22;1977;52.274;10.518;2024-01-15T02:38:55;3.70;99.90
3925;DHT22;1977;52.274;10.518;2024-01-15T02:41:23;3.70;99.90
3925;DHT22;1977;52.274;10.518;2024-01-15T02:43:50;3.60;99.90
3925;DHT22;1977;52.274;10.518;2024-01-15T02:46:17;4.00;99.90
3925;DHT22;1977;52.274;10.518;2024-01-15T02:48:43;3.70;99.90
3925;DHT22;1977;52.274;10.518;2024-01-15T02:51:10;3.70;99.90
3925;DHT22;1977;52.274;10.518;2024-01-15T02:53:37;3.60;99.90
3925;DHT22;1977;52.274;10.518;2024-01-15T02:56:04;3.70;99.90
3925;DHT22;1977;52.274;10.518;2024-01-15T02:58:32;3.70;99.90
3925;DHT22;1977;52.274;10.518;2024-01-15T03:00:59;3.70;99.90
3925;DHT22;1977;52.274;10.518;2024-01-15T03:03:26;3.70;99.90
3925;DHT22;1977;52.274;10.518;2024-01-15T03:05:52;3.70;99.90
3925;DHT22;1977;52.274;10.518;2024-01-15T03:08:19;3.70;99.90
3925;DHT22;1977;52.274;10.518;2024-01-15T03:10:48;3.60;99.90
3925;DHT22;1977;52.274;10.518;2024-01-15T03:13:14;3.60;99.90
3925;DHT22;1977;52.274;10.518;2024-01-15T03:15:48;3.60;99.90
3925;DHT22;1977;52.274;10.518;2024-01-15T03:18:15;3.70;99.90
3925;DHT22;1977;52.274;10.518;2024-01-15T03:20:42;3.60;99.90
3925;DHT22;1977;52.274;10.518;2024-01-15T03:23:09;3.70;99.90
3925;DHT22;1977;52.274;10.518;2024-01-15T03:25:36;3.80;99.90
3925;DHT22;1977;52.274;10.518;2024-01-15T03:28:03;3.70;99.90
3925;DHT22;1977;52.274;10.518;2024-01-15T03:30:29;3.80;99.90
3925;DHT22;1977;52.274;10.518;2024-01-15T03:32:58;3.70;99.90
3925;DHT22;1977;52.274;10.518;2024-01-15T03:35:24;3.80;99.90
3925;DHT22;1977;52.274;10.518;2024-01-15T03:37:54;3.80;99.90
3925;DHT22;1977;52.274;10.518;2024-01-15T03:40:22;3.70;99.90
3925;DHT22;1977;52.274;10.518;2024-01-15T03:42:48;3.70;99.90
3925;DHT22;1977;52.274;10.518;2024-01-15T03:45:15;3.70;99.90
3925;DHT22;1977;52.274;10.518;2024-01-15T03:47:42;3.70;99.90
3925;DHT22;1977;52.274;10.518;2024-01-15T03:50:10;3.80;99.90
3925;DHT22;1977;52.274;10.518;2024-01-15T03:52:37;4.00;99.90
3925;DHT22;1977;52.274;10.518;2024-01-15T03:55:05;3.80;99.90
3925;DHT22;1977;52.274;10.518;2024-01-15T03:57:32;3.80;99.90
3925;DHT22;1977;52.274;10.518;2024-01-15T03:59:58;3.80;99.90
3925;DHT22;1977;52.274;10.518;2024-01-15T04:02:25;3.80;99.90
3925;DHT22;1977;52.274;10.518;2024-01-15T04:04:52;3.70;99.90
3925;DHT22;1977;52.274;10.518;2024-01-15T04:07:20;3.80;99.90
3925;DHT22;1977;52.274;10.518;2024-01-15T04:09:47;3.70;99.90
3925;DHT22;1977;52.274;10.518;2024-01-15T04:12:14;3.80;99.90
3925;DHT22;1977;52.274;10.518;2024-01-15T04:14:40;4.10;99.90
3925;DHT22;1977;52.274;10.518;2024-01-15T04:17:07;3.70;99.90
3925;DHT22;1977;52.274;10.518;2024-01-15T04:19:34;3.80;99.90
3925;DHT22;1977;52.274;10.518;2024-01-15T04:22:00;3.70;99.90
3925;DHT22;1977;52.274;10.518;2024-01-15T04:24:29;3.70;99.90
3925;DHT22;1977;52.274;10.518;2024-01-15T04:26:57;3.70;99.90
3925;DHT22;1977;52.274;10.518;2024-01-15T04:29:24;3.60;99.90
3925;DHT22;1977;52.274;10.518;2024-01-15T04:31:52;3.60;99.90
3925;DHT22;1977;52.274;10.518;2024-01-15T04:34:19;3.60;99.90
3925;DHT22;1977;52.274;10.518;2024-01-15T04:36:46;3.50;99.90
3925;DHT22;1977;52.274;10.518;2024-01-15T04:39:13;3.50;99.90
3925;DHT22;1977;52.274;10.518;2024-01-15T04:41:41;3.80;99.90
3925;DHT22;1977;52.274;10.518;2024-01-15T04:44:08;3.60;99.90
3925;DHT22;1977;52.274;10.518;2024-01-15T04:46:34;3.60;99.90
3925;DHT22;1977;52.274;10.518;2024-01-15T04:49:01;3.60;99.90
3925;DHT22;1977;52.274;10.518;2024-01-15T04:51:28;3.90;99.90
3925;DHT22;1977;52.274;10.518;2024-01-15T04:53:55;3.70;99.90
3925;DHT22;1977;52.274;10.518;2024-01-15T04:56:22;3.70;99.90
3925;DHT22;1977;52.274;10.518;2024-01-15T04:58:50;3.70;99.90
3925;DHT22;1977;52.274;10.518;2024-01-15T05:01:17;3.70;99.90
3925;DHT22;1977;52.274;10.518;2024-01-15T05:03:44;3.60;99.90
3925;DHT22;1977;52.274;10.518;2024-01-15T05:06:11;3.70;99.90
3925;DHT22;1977;52.274;10.518;2024-01-15T05:08:37;3.70;99.90
3925;DHT22;1977;52.274;10.518;2024-01-15T05:11:04;3.70;99.90
3925;DHT22;1977;52.274;10.518;2024-01-15T05:13:31;3.70;99.90
3925;DHT22;1977;52.274;10.518;2024-01-15T05:15:59;3.70;99.90
3925;DHT22;1977;52.274;10.518;2024-01-15T05:18:26;3.80;99.90
3925;DHT22;1977;52.274;10.518;2024-01-15T05:20:53;3.70;99.90
3925;DHT22;1977;52.274;10.518;2024-01-15T05:23:20;3.80;99.90
3925;DHT22;1977;52.274;10.518;2024-01-15T05:25:46;3.70;99.90
3925;DHT22;1977;52.274;10.518;2024-01-15T05:28:14;3.80;99.90
3925;DHT22;1977;52.274;10.518;2024-01-15T05:30:41;3.80;99.90
3925;DHT22;1977;52.274;10.518;2024-01-15T05:33:09;3.70;99.90
3925;DHT22;1977;52.274;10.518;2024-01-15T05:35:36;3.70;99.90
3925;DHT22;1977;52.274;10.518;2024-01-15T05:38:03;3.70;99.90
3925;DHT22;1977;52.274;10.518;2024-01-15T05:40:30;3.70;99.90
3925;DHT22;1977;52.274;10.518;2024-01-15T05:42:57;3.80;99.90
3925;DHT22;1977;52.274;10.518;2024-01-15T05:45:25;3.70;99.90
3925;DHT22;1977;52.274;10.518;2024-01-15T05:47:52;3.70;99.90
3925;DHT22;1977;52.274;10.518;2024-01-15T05:50:20;3.60;99.90
3925;DHT22;1977;52.274;10.518;2024-01-15T05:52:47;3.60;99.90
3925;DHT22;1977;52.274;10.518;2024-01-15T05:55:14;3.60;99.90
3925;DHT22;1977;52.274;10.518;2024-01-15T05:57:41;3.60;99.90
3925;DHT22;1977;52.274;10.518;2024-01-15T06:00:09;3.60;99.90
3925;DHT22;1977;52.274;10.518;2024-01-15T06:02:37;3.60;99.90
3925;DHT22;1977;52.274;10.518;2024-01-15T06:05:04;3.60;99.90
3925;DHT22;1977;52.274;10.518;2024-01-15T06:07:34;3.50;99.90
3925;DHT22;1977;52.274;10.518;2024-01-15T06:10:01;3.50;99.90
3925;DHT22;1977;52.274;10.518;2024-01-15T06:12:28;3.70;99.90
3925;DHT22;1977;52.274;10.518;2024-01-15T06:14:54;3.60;99.90
3925;DHT22;1977;52.274;10.518;2024-01-15T06:17:21;3.60;99.90
3925;DHT22;1977;52.274;10.518;2024-01-15T06:19:48;3.60;99.90
3925;DHT22;1977;52.274;10.518;2024-01-15T06:22:15;3.60;99.90
3925;DHT22;1977;52.274;10.518;2024-01-15T06:24:43;3.60;99.90
3925;DHT22;1977;52.274;10.518;2024-01-15T06:27:10;3.60;99.90
3925;DHT22;1977;52.274;10.518;2024-01-15T06:29:38;3.60;99.90
3925;DHT22;1977;52.274;10.518;2024-01-15T06:32:05;3.50;99.90
3925;DHT22;1977;52.274;10.518;2024-01-15T06:34:32;3.60;99.90
3925;DHT22;1977;52.274;10.518;2024-01-15T06:36:58;3.50;99.90
3925;DHT22;1977;52.274;10.518;2024-01-15T06:39:25;3.60;99.90
3925;DHT22;1977;52.274;10.518;2024-01-15T06:41:53;3.60;99.90
3925;DHT22;1977;52.274;10.518;2024-01-15T06:44:20;3.60;99.90
3925;DHT22;1977;52.274;10.518;2024-01-15T06:46:47;3.70;99.90
3925;DHT22;1977;52.274;10.518;2024-01-15T06:49:14;3.70;99.90
3925;DHT22;1977;52.274;10.518;2024-01-15T06:51:41;3.70;99.90
3925;DHT22;1977;52.274;10.518;2024-01-15T06:54:08;3.60;99.90
3925;DHT22;1977;52.274;10.518;2024-01-15T06:56:35;3.70;99.90
3925;DHT22;1977;52.274;10.518;2024-01-15T06:59:03;3.70;99.90
3925;DHT22;1977;52.274;10.518;2024-01-15T07:01:30;3.70;99.90
3925;DHT22;1977;52.274;10.518;2024-01-15T07:03:57;3.60;99.90
3925;DHT22;1977;52.274;10.518;2024-01-15T07:06:24;3.60;99.90
3925;DHT22;1977;52.274;10.518;2024-01-15T07:08:51;3.60;99.90
3925;DHT22;1977;52.274;10.518;2024-01-15T07:11:18;3.60;99.90
3925;DHT22;1977;52.274;10.518;2024-01-15T07:13:45;3.50;99.90
3925;DHT22;1977;52.274;10.518;2024-01-15T07:16:13;3.50;99.90
3925;DHT22;1977;52.274;10.518;2024-01-15T07:18:39;3.50;99.90
3925;DHT22;1977;52.274;10.518;2024-01-15T07:21:06;3.50;99.90
3925;DHT22;1977;52.274;10.518;2024-01-15T07:23:33;3.50;99.90
3925;DHT22;1977;52.274;10.518;2024-01-15T07:26:00;3.50;99.90
3925;DHT22;1977;52.274;10.518;2024-01-15T07:28:28;3.60;99.90
3925;DHT22;1977;52.274;10.518;2024-01-15T07:30:55;3.50;99.90
3925;DHT22;1977;52.274;10.518;2024-01-15T07:33:23;3.50;99.90
3925;DHT22;1977;52.274;10.518;2024-01-15T07:35:49;3.40;99.90
3925;DHT22;1977;52.274;10.518;2024-01-15T07:38:16;3.40;99.90
3925;DHT22;1977;52.274;10.518;2024-01-15T07:43:08;3.50;99.90
3925;DHT22;1977;52.274;10.518;2024-01-15T07:45:35;3.50;99.90
3925;DHT22;1977;52.274;10.518;2024-01-15T07:48:02;3.50;99.90
3925;DHT22;1977;52.274;10.518;2024-01-15T07:50:31;3.50;99.90
3925;DHT22;1977;52.274;10.518;2024-01-15T07:52:57;3.50;99.90
3925;DHT22;1977;52.274;10.518;2024-01-15T07:55:24;3.50;99.90
3925;DHT22;1977;52.274;10.518;2024-01-15T07:57:51;3.50;99.90
3925;DHT22;1977;52.274;10.518;2024-01-15T08:00:19;3.50;99.90
3925;DHT22;1977;52.274;10.518;2024-01-15T08:02:46;3.60;99.90
3925;DHT22;1977;52.274;10.518;2024-01-15T08:05:13;3.60;99.90
3925;DHT22;1977;52.274;10.518;2024-01-15T08:07:41;3.60;99.90
3925;DHT22;1977;52.274;10.518;2024-01-15T08:10:08;3.60;99.90
3925;DHT22;1977;52.274;10.518;2024-01-15T08:12:35;3.60;99.90
3925;DHT22;1977;52.274;10.518;2024-01-15T08:15:02;3.50;99.90
3925;DHT22;1977;52.274;10.518;2024-01-15T08:17:30;3.50;99.90
3925;DHT22;1977;52.274;10.518;2024-01-15T08:19:57;3.50;99.90
3925;DHT22;1977;52.274;10.518;2024-01-15T08:22:25;3.60;99.90
3925;DHT22;1977;52.274;10.518;2024-01-15T08:24:53;3.50;99.90
3925;DHT22;1977;52.274;10.518;2024-01-15T08:27:20;3.50;99.90
3925;DHT22;1977;52.274;10.518;2024-01-15T08:29:47;3.50;99.90
3925;DHT22;1977;52.274;10.518;2024-01-15T08:32:14;3.50;99.90
3925;DHT22;1977;52.274;10.518;2024-01-15T08:34:41;3.60;99.90
3925;DHT22;1977;52.274;10.518;2024-01-15T08:37:08;3.60;99.90
3925;DHT22;1977;52.274;10.518;2024-01-15T08:39:35;3.60;99.90
3925;DHT22;1977;52.274;10.518;2024-01-15T08:42:05;3.60;99.90
3925;DHT22;1977;52.274;10.518;2024-01-15T08:44:32;3.60;99.90
3925;DHT22;1977;52.274;10.518;2024-01-15T08:46:59;3.60;99.90
3925;DHT22;1977;52.274;10.518;2024-01-15T08:49:25;3.60;99.90
3925;DHT22;1977;52.274;10.518;2024-01-15T08:51:52;3.60;99.90
3925;DHT22;1977;52.274;10.518;2024-01-15T08:54:19;3.70;99.90
3925;DHT22;1977;52.274;10.518;2024-01-15T08:56:46;3.70;99.90
3925;DHT22;1977;52.274;10.518;2024-01-15T08:59:14;3.70;99.90
3925;DHT22;1977;52.274;10.518;2024-01-15T09:01:41;3.70;99.90
3925;DHT22;1977;52.274;10.518;2024-01-15T09:04:08;3.70;99.90
3925;DHT22;1977;52.274;10.518;2024-01-15T09:06:35;3.70;99.90
3925;DHT22;1977;52.274;10.518;2024-01-15T09:09:01;3.60;99.90
3925;DHT22;1977;52.274;10.518;2024-01-15T09:11:30;3.70;99.90
3925;DHT22;1977;52.274;10.518;2024-01-15T09:13:57;3.60;99.90
3925;DHT22;1977;52.274;10.518;2024-01-15T09:16:25;3.60;99.90
3925;DHT22;1977;52.274;10.518;2024-01-15T09:18:52;3.60;99.90
3925;DHT22;1977;52.274;10.518;2024-01-15T09:21:19;3.60;99.90
3925;DHT22;1977;52.274;10.518;2024-01-15T09:23:46;3.60;99.90
3925;DHT22;1977;52.274;10.518;2024-01-15T09:26:13;3.60;99.90
3925;DHT22;1977;52.274;10.518;2024-01-15T09:28:40;3.70;99.90
3925;DHT22;1977;52.274;10.518;2024-01-15T09:31:07;3.80;99.90
3925;DHT22;1977;52.274;10.518;2024-01-15T09:33:35;3.80;99.90
3925;DHT22;1977;52.274;10.518;2024-01-15T09:36:02;3.80;99.90
3925;DHT22;1977;52.274;10.518;2024-01-15T09:38:29;3.80;99.90
3925;DHT22;1977;52.274;10.518;2024-01-15T09:40:57;3.80;99.90
3925;DHT22;1977;52.274;10.518;2024-01-15T09:43:24;3.80;99.90
3925;DHT22;1977;52.274;10.518;2024-01-15T09:45:51;3.70;99.90
3925;DHT22;1977;52.274;10.518;2024-01-15T09:48:19;3.80;99.90
3925;DHT22;1977;52.274;10.518;2024-01-15T09:50:47;3.80;99.90
3925;DHT22;1977;52.274;10.518;2024-01-15T09:53:15;3.80;99.90
3925;DHT22;1977;52.274;10.518;2024-01-15T09:55:42;3.80;99.90
3925;DHT22;1977;52.274;10.518;2024-01-15T09:58:09;3.70;99.90
3925;DHT22;1977;52.274;10.518;2024-01-15T10:00:37;3.80;99.90
3925;DHT22;1977;52.274;10.518;2024-01-15T10:03:07;3.80;99.90
3925;DHT22;1977;52.274;10.518;2024-01-15T10:05:36;3.80;99.90
3925;DHT22;1977;52.274;10.518;2024-01-15T10:08:04;3.90;99.90
3925;DHT22;1977;52.274;10.518;2024-01-15T10:10:31;4.00;99.90
3925;DHT22;1977;52.274;10.518;2024-01-15T10:12:59;3.90;99.90
3925;DHT22;1977;52.274;10.518;2024-01-15T10:15:26;4.00;99.90
3925;DHT22;1977;52.274;10.518;2024-01-15T10:17:52;4.00;99.90
3925;DHT22;1977;52.274;10.518;2024-01-15T10:20:20;4.00;99.90
3925;DHT22;1977;52.274;10.518;2024-01-15T10:22:48;4.10;99.90
3925;DHT22;1977;52.274;10.518;2024-01-15T10:25:18;4.10;99.90
3925;DHT22;1977;52.274;10.518;2024-01-15T10:27:59;4.10;99.90
3925;DHT22;1977;52.274;10.518;2024-01-15T10:30:30;4.10;99.90
3925;DHT22;1977;52.274;10.518;2024-01-15T10:32:59;4.10;99.90
3925;DHT22;1977;52.274;10.518;2024-01-15T10:35:27;4.10;99.90
3925;DHT22;1977;52.274;10.518;2024-01-15T10:37:54;4.10;99.90
3925;DHT22;1977;52.274;10.518;2024-01-15T10:40:23;4.20;99.90
3925;DHT22;1977;52.274;10.518;2024-01-15T10:42:50;4.20;99.90
3925;DHT22;1977;52.274;10.518;2024-01-15T10:45:17;4.20;99.90
3925;DHT22;1977;52.274;10.518;2024-01-15T10:47:44;4.20;99.90
3925;DHT22;1977;52.274;10.518;2024-01-15T10:50:11;4.20;99.90
3925;DHT22;1977;52.274;10.518;2024-01-15T10:52:40;4.20;99.90
3925;DHT22;1977;52.274;10.518;2024-01-15T10:55:08;4.20;99.90
3925;DHT22;1977;52.274;10.518;2024-01-15T10:57:36;4.10;99.90
3925;DHT22;1977;52.274;10.518;2024-01-15T11:00:04;4.10;99.90
3925;DHT22;1977;52.274;10.518;2024-01-15T11:02:32;4.10;99.90
3925;DHT22;1977;52.274;10.518;2024-01-15T11:04:59;4.10;99.90
3925;DHT22;1977;52.274;10.518;2024-01-15T11:07:26;4.10;99.90
3925;DHT22;1977;52.274;10.518;2024-01-15T11:09:53;4.10;99.90
3925;DHT22;1977;52.274;10.518;2024-01-15T11:12:20;4.10;99.90
3925;DHT22;1977;52.274;10.518;2024-01-15T11:14:49;4.10;99.90
3925;DHT22;1977;52.274;10.518;2024-01-15T11:17:17;4.20;99.90
3925;DHT22;1977;52.274;10.518;2024-01-15T11:19:45;4.10;99.90
3925;DHT22;1977;52.274;10.518;2024-01-15T11:22:47;4.20;99.90
3925;DHT22;1977;52.274;10.518;2024-01-15T11:25:14;4.20;99.90
3925;DHT22;1977;52.274;10.518;2024-01-15T11:27:42;4.10;99.90
3925;DHT22;1977;52.274;10.518;2024-01-15T11:30:12;4.00;99.90
3925;DHT22;1977;52.274;10.518;2024-01-15T11:32:39;4.10;99.90
3925;DHT22;1977;52.274;10.518;2024-01-15T11:35:08;4.10;99.90
3925;DHT22;1977;52.274;10.518;2024-01-15T11:37:57;4.10;99.90
3925;DHT22;1977;52.274;10.518;2024-01-15T11:40:36;4.10;99.90
3925;DHT22;1977;52.274;10.518;2024-01-15T11:43:04;4.20;99.90
3925;DHT22;1977;52.274;10.518;2024-01-15T11:45:32;4.20;99.90
3925;DHT22;1977;52.274;10.518;2024-01-15T11:48:11;4.20;99.90
3925;DHT22;1977;52.274;10.518;2024-01-15T11:50:40;4.20;99.90
3925;DHT22;1977;52.274;10.518;2024-01-15T11:53:15;4.30;99.90
3925;DHT22;1977;52.274;10.518;2024-01-15T11:55:44;4.30;99.90
3925;DHT22;1977;52.274;10.518;2024-01-15T11:58:12;4.30;99.90
3925;DHT22;1977;52.274;10.518;2024-01-15T12:00:45;4.30;99.90
3925;DHT22;1977;52.274;10.518;2024-01-15T12:03:13;4.30;99.90
3925;DHT22;1977;52.274;10.518;2024-01-15T12:05:40;4.20;99.90
3925;DHT22;1977;52.274;10.518;2024-01-15T12:08:07;4.20;99.90
3925;DHT22;1977;52.274;10.518;2024-01-15T12:10:36;4.20;99.90
3925;DHT22;1977;52.274;10.518;2024-01-15T12:13:05;4.20;99.90
3925;DHT22;1977;52.274;10.518;2024-01-15T12:15:33;4.30;99.90
3925;DHT22;1977;52.274;10.518;2024-01-15T12:18:02;4.20;99.90
3925;DHT22;1977;52.274;10.518;2024-01-15T12:20:30;4.30;99.90
3925;DHT22;1977;52.274;10.518;2024-01-15T12:22:58;4.40;99.90
3925;DHT22;1977;52.274;10.518;2024-01-15T12:25:25;4.40;99.90
3925;DHT22;1977;52.274;10.518;2024-01-15T12:27:53;4.40;99.90
3925;DHT22;1977;52.274;10.518;2024-01-15T12:30:20;4.40;99.90
3925;DHT22;1977;52.274;10.518;2024-01-15T12:32:47;4.40;99.90
3925;DHT22;1977;52.274;10.518;2024-01-15T12:35:15;4.40;99.90
3925;DHT22;1977;52.274;10.518;2024-01-15T12:37:43;4.70;99.90
3925;DHT22;1977;52.274;10.518;2024-01-15T12:40:11;4.40;99.90
3925;DHT22;1977;52.274;10.518;2024-01-15T12:42:40;4.40;99.90
3925;DHT22;1977;52.274;10.518;2024-01-15T12:45:08;4.50;99.90
3925;DHT22;1977;52.274;10.518;2024-01-15T12:47:36;4.40;99.90
3925;DHT22;1977;52.274;10.518;2024-01-15T12:50:06;4.40;99.90
3925;DHT22;1977;52.274;10.518;2024-01-15T12:52:34;4.40;99.90
3925;DHT22;1977;52.274;10.518;2024-01-15T12:55:04;4.40;99.90
3925;DHT22;1977;52.274;10.518;2024-01-15T12:57:30;4.40;99.90
3925;DHT22;1977;52.274;10.518;2024-01-15T12:59:57;4.40;99.90
3925;DHT22;1977;52.274;10.518;2024-01-15T13:02:24;4.40;99.90
3925;DHT22;1977;52.274;10.518;2024-01-15T13:04:51;4.30;99.90
3925;DHT22;1977;52.274;10.518;2024-01-15T13:07:19;4.30;99.90
3925;DHT22;1977;52.274;10.518;2024-01-15T13:09:47;4.20;99.90
3925;DHT22;1977;52.274;10.518;2024-01-15T13:12:17;4.20;99.90
3925;DHT22;1977;52.274;10.518;2024-01-15T13:14:44;4.20;99.90
3925;DHT22;1977;52.274;10.518;2024-01-15T13:17:11;4.30;99.90
3925;DHT22;1977;52.274;10.518;2024-01-15T13:19:37;4.20;99.90
3925;DHT22;1977;52.274;10.518;2024-01-15T13:22:04;4.20;99.90
3925;DHT22;1977;52.274;10.518;2024-01-15T13:24:32;4.20;99.90
3925;DHT22;1977;52.274;10.518;2024-01-15T13:27:00;4.30;99.90
3925;DHT22;1977;52.274;10.518;2024-01-15T13:29:28;4.20;99.90
3925;DHT22;1977;52.274;10.518;2024-01-15T13:31:54;4.20;99.90
3925;DHT22;1977;52.274;10.518;2024-01-15T13:34:21;4.20;99.90
3925;DHT22;1977;52.274;10.518;2024-01-15T13:36:48;4.20;99.90
3925;DHT22;1977;52.274;10.518;2024-01-15T13:39:15;4.20;99.90
3925;DHT22;1977;52.274;10.518;2024-01-15T13:41:45;4.20;99.90
3925;DHT22;1977;52.274;10.518;2024-01-15T13:44:13;4.20;99.90
3925;DHT22;1977;52.274;10.518;2024-01-15T13:46:40;4.30;99.90
3925;DHT22;1977;52.274;10.518;2024-01-15T13:49:07;4.20;99.90
3925;DHT22;1977;52.274;10.518;2024-01-15T13:51:35;4.30;99.90
3925;DHT22;1977;52.274;10.518;2024-01-15T13:54:02;4.30;99.90
3925;DHT22;1977;52.274;10.518;2024-01-15T13:56:30;4.30;99.90
3925;DHT22;1977;52.274;10.518;2024-01-15T13:58:58;4.40;99.90
3925;DHT22;1977;52.274;10.518;2024-01-15T14:01:27;4.30;99.90
3925;DHT22;1977;52.274;10.518;2024-01-15T14:03:54;4.20;99.90
3925;DHT22;1977;52.274;10.518;2024-01-15T14:06:21;4.10;99.90
3925;DHT22;1977;52.274;10.518;2024-01-15T14:08:50;4.10;99.90
3925;DHT22;1977;52.274;10.518;2024-01-15T14:11:19;4.00;99.90
3925;DHT22;1977;52.274;10.518;2024-01-15T14:13:46;4.00;99.90
3925;DHT22;1977;52.274;10.518;2024-01-15T14:16:16;3.90;99.90
3925;DHT22;1977;52.274;10.518;2024-01-15T14:18:44;4.00;99.90
3925;DHT22;1977;52.274;10.518;2024-01-15T14:21:11;4.00;99.90
3925;DHT22;1977;52.274;10.518;2024-01-15T14:23:38;4.00;99.90
3925;DHT22;1977;52.274;10.518;2024-01-15T14:26:05;4.00;99.90
3925;DHT22;1977;52.274;10.518;2024-01-15T14:28:31;4.00;99.90
3925;DHT22;1977;52.274;10.518;2024-01-15T14:30:58;4.00;99.90
3925;DHT22;1977;52.274;10.518;2024-01-15T14:33:25;4.00;99.90
3925;DHT22;1977;52.274;10.518;2024-01-15T14:35:54;4.00;99.90
3925;DHT22;1977;52.274;10.518;2024-01-15T14:38:20;4.00;99.90
3925;DHT22;1977;52.274;10.518;2024-01-15T14:40:47;4.00;99.90
3925;DHT22;1977;52.274;10.518;2024-01-15T14:43:14;3.90;99.90
3925;DHT22;1977;52.274;10.518;2024-01-15T14:45:41;3.90;99.90
3925;DHT22;1977;52.274;10.518;2024-01-15T14:48:09;3.90;99.90
3925;DHT22;1977;52.274;10.518;2024-01-15T14:50:35;3.80;99.90
3925;DHT22;1977;52.274;10.518;2024-01-15T14:53:04;3.90;99.90
3925;DHT22;1977;52.274;10.518;2024-01-15T14:55:30;3.90;99.90
3925;DHT22;1977;52.274;10.518;2024-01-15T14:57:57;3.90;99.90
3925;DHT22;1977;52.274;10.518;2024-01-15T15:00:24;3.90;99.90
3925;DHT22;1977;52.274;10.518;2024-01-15T15:02:51;3.90;99.90
3925;DHT22;1977;52.274;10.518;2024-01-15T15:05:18;3.90;99.90
3925;DHT22;1977;52.274;10.518;2024-01-15T15:07:45;3.90;99.90
3925;DHT22;1977;52.274;10.518;2024-01-15T15:10:13;3.90;99.90
3925;DHT22;1977;52.274;10.518;2024-01-15T15:12:40;3.80;99.90
3925;DHT22;1977;52.274;10.518;2024-01-15T15:15:08;3.80;99.90
3925;DHT22;1977;52.274;10.518;2024-01-15T15:17:36;3.80;99.90
3925;DHT22;1977;52.274;10.518;2024-01-15T15:20:04;3.80;99.90
3925;DHT22;1977;52.274;10.518;2024-01-15T15:22:31;3.80;99.90
3925;DHT22;1977;52.274;10.518;2024-01-15T15:24:58;3.80;99.90
3925;DHT22;1977;52.274;10.518;2024-01-15T15:27:26;3.80;99.90
3925;DHT22;1977;52.274;10.518;2024-01-15T15:29:54;3.70;99.90
3925;DHT22;1977;52.274;10.518;2024-01-15T15:32:21;3.80;99.90
3925;DHT22;1977;52.274;10.518;2024-01-15T15:34:47;3.80;99.90
3925;DHT22;1977;52.274;10.518;2024-01-15T15:37:14;3.80;99.90
3925;DHT22;1977;52.274;10.518;2024-01-15T15:39:42;3.80;99.90
3925;DHT22;1977;52.274;10.518;2024-01-15T15:42:09;3.90;99.90
3925;DHT22;1977;52.274;10.518;2024-01-15T15:44:37;3.90;99.90
3925;DHT22;1977;52.274;10.518;2024-01-15T15:47:09;3.90;99.90
3925;DHT22;1977;52.274;10.518;2024-01-15T15:49:35;3.90;99.90
3925;DHT22;1977;52.274;10.518;2024-01-15T15:52:02;3.90;99.90
3925;DHT22;1977;52.274;10.518;2024-01-15T15:54:29;3.80;99.90
3925;DHT22;1977;52.274;10.518;2024-01-15T15:56:56;3.80;99.90
3925;DHT22;1977;52.274;10.518;2024-01-15T15:59:23;3.70;99.90
3925;DHT22;1977;52.274;10.518;2024-01-15T16:01:51;3.70;99.90
3925;DHT22;1977;52.274;10.518;2024-01-15T16:04:18;3.80;99.90
3925;DHT22;1977;52.274;10.518;2024-01-15T16:06:45;4.00;99.90